Terminal Aerodrome Forecast
Issued by NWS

Home | Current Version | Previous Version | Graphics & Text | Print | Product List | Glossary On
Versions: 1 2 3 4 5 6 7 8 9 10 11 12 13 14 15 16 17 18 19 20 21 22 23 24 25 26 27 28 29 30 31 32 33 34 35 36 37 38 39 40 41 42 43 44 45 46 47 48 49 50
000
FTUS43 KLOT 212320
TAFGYY
TAF
KGYY 212320Z 2200/2224 17012G20KT P6SM FEW100 SCT150 BKN250
     FM220400 18012KT P6SM SCT060 BKN100 WS015/20045KT
     FM221500 19012G22KT P6SM VCSH SCT020 BKN040
      TEMPO 2217/2221 3SM -RA BR BKN013
     FM222200 34012G20KT 3SM -RA BR BKN008 OVC012=

USA.gov is the U.S. government's official web portal to all federal, state and local government web resources and services.